Time;durP1;ratioP1;P1;durP2;ratioP2;P2;SDS_P1;SDS_P2;PMS_P1;PMS_P2;Temp;Humidity;BMP_temperature;BMP_pressure;BME280_temperature;BME280_humidity;BME280_pressure;Samples;Min_cycle;Max_cycle;Signal;HPM_P1;HPM_P2
2021/11/11 00:00:30;;;;;;;66.30;39.70;;;2.50;99.90;;;;;;2103908;28;20543;-71
2021/11/11 00:01:31;;;;;;;61.80;37.30;;;2.50;99.90;;;;;;2105650;28;20021;-72
2021/11/11 00:02:31;;;;;;;62.92;38.72;;;2.50;99.90;;;;;;2106035;28;20055;-71
2021/11/11 00:03:32;;;;;;;65.03;38.00;;;2.50;99.90;;;;;;2105230;28;20092;-71
2021/11/11 00:04:33;;;;;;;63.10;37.00;;;2.50;99.90;;;;;;2105995;28;20111;-71
2021/11/11 00:05:34;;;;;;;61.67;37.95;;;2.50;99.90;;;;;;2106055;28;20020;-70
2021/11/11 00:06:35;;;;;;;61.63;37.88;;;2.50;99.90;;;;;;2105962;28;20559;-70
2021/11/11 00:07:36;;;;;;;64.10;38.70;;;2.50;99.90;;;;;;2105323;28;20058;-72
2021/11/11 00:08:37;;;;;;;65.18;39.00;;;2.50;99.90;;;;;;2100901;28;20425;-72
2021/11/11 00:09:37;;;;;;;64.97;38.83;;;2.50;99.90;;;;;;2106002;28;20028;-71
2021/11/11 00:10:39;;;;;;;63.92;38.58;;;2.50;99.90;;;;;;2105524;28;20020;-70
2021/11/11 00:11:42;;;;;;;65.03;38.63;;;2.50;99.90;;;;;;2105400;28;20035;-70
2021/11/11 00:12:43;;;;;;;64.20;39.10;;;2.50;99.90;;;;;;2106050;28;20534;-71
2021/11/11 00:13:44;;;;;;;66.72;40.03;;;2.50;99.90;;;;;;2103696;28;20100;-71
2021/11/11 00:14:44;;;;;;;62.13;38.53;;;2.50;99.90;;;;;;2105325;28;20020;-71
2021/11/11 00:15:49;;;;;;;66.10;40.00;;;2.50;99.90;;;;;;2105909;28;20519;-71
2021/11/11 00:16:50;;;;;;;64.15;39.83;;;2.50;99.90;;;;;;2105237;28;20031;-71
2021/11/11 00:17:51;;;;;;;65.35;39.15;;;2.50;99.90;;;;;;2093663;28;20040;-70
2021/11/11 00:18:52;;;;;;;64.30;39.22;;;2.50;99.90;;;;;;2096809;28;20024;-71
2021/11/11 00:19:52;;;;;;;65.18;39.35;;;2.40;99.90;;;;;;2097418;28;20064;-71
2021/11/11 00:20:56;;;;;;;63.90;39.05;;;2.40;99.90;;;;;;2096332;28;20476;-71
2021/11/11 00:21:57;;;;;;;67.65;40.53;;;2.40;99.90;;;;;;2097512;28;20040;-71
2021/11/11 00:22:58;;;;;;;66.68;40.40;;;2.40;99.90;;;;;;2096957;28;20094;-70
2021/11/11 00:23:59;;;;;;;67.75;40.45;;;2.40;99.90;;;;;;2098501;28;20478;-71
2021/11/11 00:24:59;;;;;;;67.10;40.38;;;2.40;99.90;;;;;;2100017;28;20064;-71
2021/11/11 00:26:00;;;;;;;68.93;40.88;;;2.40;99.90;;;;;;2106387;28;20032;-70
2021/11/11 00:27:01;;;;;;;66.65;39.85;;;2.40;99.90;;;;;;2104760;28;20097;-72
2021/11/11 00:28:01;;;;;;;70.18;40.67;;;2.40;99.90;;;;;;2106147;28;20055;-72
2021/11/11 00:29:02;;;;;;;69.40;40.22;;;2.50;99.90;;;;;;2098918;28;20052;-72
2021/11/11 00:30:04;;;;;;;71.53;42.08;;;2.50;99.90;;;;;;2097740;28;20021;-70
2021/11/11 00:31:05;;;;;;;67.95;40.78;;;2.50;99.90;;;;;;2096975;28;20047;-72
2021/11/11 00:32:06;;;;;;;68.43;40.35;;;2.50;99.90;;;;;;2105421;28;20805;-70
2021/11/11 00:33:07;;;;;;;66.28;40.53;;;2.50;99.90;;;;;;2105855;28;20039;-70
2021/11/11 00:34:07;;;;;;;66.75;40.25;;;2.50;99.90;;;;;;2105883;28;20123;-70
2021/11/11 00:35:14;;;;;;;69.43;41.30;;;2.50;99.90;;;;;;2105783;28;20023;-72
2021/11/11 00:36:15;;;;;;;70.90;41.00;;;2.50;99.90;;;;;;2104844;28;20679;-72
2021/11/11 00:37:16;;;;;;;67.13;40.15;;;2.40;99.90;;;;;;2096509;28;20107;-72
2021/11/11 00:38:16;;;;;;;75.95;43.15;;;2.40;99.90;;;;;;2089497;28;20042;-71
2021/11/11 00:39:17;;;;;;;94.22;51.20;;;2.40;99.90;;;;;;2101417;28;20032;-71
2021/11/11 00:40:18;;;;;;;104.25;55.00;;;2.40;99.90;;;;;;2105054;28;20146;-72
2021/11/11 00:41:19;;;;;;;108.07;56.10;;;2.40;99.90;;;;;;2104429;28;20361;-71
2021/11/11 00:42:20;;;;;;;98.93;53.28;;;2.40;99.90;;;;;;2106849;28;20035;-72
2021/11/11 00:43:21;;;;;;;107.18;55.30;;;2.40;99.90;;;;;;2098184;28;20029;-73
2021/11/11 00:44:21;;;;;;;109.43;56.97;;;2.40;99.90;;;;;;2099000;28;20024;-72
2021/11/11 00:45:22;;;;;;;120.65;60.25;;;2.40;99.90;;;;;;2098873;28;20040;-72
2021/11/11 00:46:23;;;;;;;123.47;63.38;;;2.40;99.90;;;;;;2089051;28;20813;-72
2021/11/11 00:47:24;;;;;;;129.88;62.90;;;2.40;99.90;;;;;;2097669;28;20036;-72
2021/11/11 00:48:24;;;;;;;125.65;62.20;;;2.40;99.90;;;;;;2098699;28;20029;-72
2021/11/11 00:49:25;;;;;;;117.65;59.05;;;2.40;99.90;;;;;;2104593;28;20511;-72
2021/11/11 00:50:28;;;;;;;106.35;55.95;;;2.40;99.90;;;;;;2090740;28;20027;-71
2021/11/11 00:51:29;;;;;;;101.53;54.03;;;2.40;99.90;;;;;;2096052;28;20088;-72
2021/11/11 00:52:31;;;;;;;98.28;51.90;;;2.40;99.90;;;;;;2105505;28;20034;-71
2021/11/11 00:53:32;;;;;;;94.90;50.42;;;2.40;99.90;;;;;;2098163;28;20025;-72
2021/11/11 00:54:34;;;;;;;91.97;49.05;;;2.40;99.90;;;;;;2088698;28;20128;-72
2021/11/11 00:55:37;;;;;;;94.68;49.92;;;2.40;99.90;;;;;;2096820;28;20483;-72
2021/11/11 00:56:43;;;;;;;85.35;47.45;;;2.40;99.90;;;;;;2089766;28;20033;-72
2021/11/11 00:57:44;;;;;;;84.05;46.35;;;2.30;99.90;;;;;;2088294;28;20029;-72
2021/11/11 00:58:44;;;;;;;90.63;50.15;;;2.30;99.90;;;;;;2080501;28;20413;-72
2021/11/11 00:59:45;;;;;;;88.57;48.53;;;2.30;99.90;;;;;;2079999;28;20481;-70
2021/11/11 01:00:46;;;;;;;83.63;46.97;;;2.30;99.90;;;;;;2079185;28;20112;-70
2021/11/11 01:01:47;;;;;;;84.55;47.85;;;2.30;99.90;;;;;;2091882;28;20107;-70
2021/11/11 01:02:49;;;;;;;85.28;47.58;;;2.30;99.90;;;;;;2104993;28;20035;-72
2021/11/11 01:03:51;;;;;;;81.75;45.70;;;2.30;99.90;;;;;;2096990;28;20024;-71
2021/11/11 01:04:51;;;;;;;77.50;44.50;;;2.30;99.90;;;;;;2096746;28;20071;-70
2021/11/11 01:05:52;;;;;;;74.88;42.90;;;2.30;99.90;;;;;;2096748;28;20028;-70
2021/11/11 01:06:53;;;;;;;73.57;42.78;;;2.30;99.90;;;;;;2096599;28;20037;-71
2021/11/11 01:07:54;;;;;;;73.40;42.50;;;2.30;99.90;;;;;;2106100;28;20159;-70
2021/11/11 01:08:55;;;;;;;71.60;41.78;;;2.30;99.90;;;;;;2098720;28;20044;-71
2021/11/11 01:09:56;;;;;;;69.63;41.08;;;2.30;99.90;;;;;;2098724;28;20020;-70
2021/11/11 01:10:56;;;;;;;74.82;42.85;;;2.30;99.90;;;;;;2098256;28;20198;-70
2021/11/11 01:11:58;;;;;;;72.82;41.83;;;2.30;99.90;;;;;;2096589;28;20511;-70
2021/11/11 01:12:59;;;;;;;70.10;41.03;;;2.30;99.90;;;;;;2098253;28;20656;-70
2021/11/11 01:14:02;;;;;;;69.07;41.00;;;2.20;99.90;;;;;;2097863;28;20032;-70
2021/11/11 01:15:05;;;;;;;69.43;40.78;;;2.30;99.90;;;;;;2097040;28;20029;-70
2021/11/11 01:16:06;;;;;;;69.80;40.85;;;2.30;99.90;;;;;;2089136;28;20040;-70
2021/11/11 01:17:07;;;;;;;75.32;42.85;;;2.30;99.90;;;;;;2096573;28;20032;-70
2021/11/11 01:18:08;;;;;;;70.10;41.00;;;2.30;99.90;;;;;;2098030;28;20651;-70
2021/11/11 01:19:08;;;;;;;70.80;41.03;;;2.30;99.90;;;;;;2101784;28;20476;-70
2021/11/11 01:20:10;;;;;;;65.53;39.55;;;2.30;99.90;;;;;;2096326;28;20031;-70
2021/11/11 01:21:13;;;;;;;69.30;40.40;;;2.30;99.90;;;;;;2095736;28;20065;-70
2021/11/11 01:22:13;;;;;;;68.35;39.53;;;2.30;99.90;;;;;;2104729;28;20028;-71
2021/11/11 01:23:14;;;;;;;67.60;39.65;;;2.30;99.90;;;;;;2097361;28;20541;-70
2021/11/11 01:24:16;;;;;;;70.13;41.33;;;2.30;99.90;;;;;;2096998;28;20032;-71
2021/11/11 01:25:20;;;;;;;68.22;39.80;;;2.30;99.90;;;;;;2096466;28;20119;-70
2021/11/11 01:26:21;;;;;;;65.13;38.92;;;2.30;99.90;;;;;;2088610;28;20025;-70
2021/11/11 01:27:23;;;;;;;69.00;40.10;;;2.30;99.90;;;;;;2096244;28;20060;-71
2021/11/11 01:28:24;;;;;;;70.50;40.85;;;2.20;99.90;;;;;;2101742;28;20936;-70
2021/11/11 01:29:25;;;;;;;69.13;40.63;;;2.20;99.90;;;;;;2097987;28;20027;-70
2021/11/11 01:30:26;;;;;;;70.15;41.25;;;2.20;99.90;;;;;;2096782;28;20032;-70
2021/11/11 01:31:33;;;;;;;67.05;39.75;;;2.20;99.90;;;;;;2097254;28;20112;-70
2021/11/11 01:32:34;;;;;;;67.45;40.38;;;2.20;99.90;;;;;;2089979;28;20028;-69
2021/11/11 01:33:35;;;;;;;71.45;41.08;;;2.20;99.90;;;;;;2096800;28;20070;-70
2021/11/11 01:34:37;;;;;;;65.68;39.78;;;2.20;99.90;;;;;;2096728;28;20025;-70
2021/11/11 01:35:38;;;;;;;71.07;41.03;;;2.20;99.90;;;;;;2096961;28;20028;-70
2021/11/11 01:36:42;;;;;;;69.30;39.13;;;2.20;99.90;;;;;;2089103;28;20090;-70
2021/11/11 01:37:48;;;;;;;65.00;38.85;;;2.20;99.90;;;;;;2101465;28;20032;-72
2021/11/11 01:38:50;;;;;;;67.05;38.72;;;2.20;99.90;;;;;;2096448;28;20439;-72
2021/11/11 01:39:52;;;;;;;68.28;39.08;;;2.20;99.90;;;;;;2088280;28;20128;-72
2021/11/11 01:40:54;;;;;;;67.50;38.88;;;2.20;99.90;;;;;;2088089;28;20508;-71
2021/11/11 01:41:57;;;;;;;68.20;40.28;;;2.20;99.90;;;;;;2096061;28;20039;-71
2021/11/11 01:43:01;;;;;;;71.03;40.60;;;2.20;99.90;;;;;;2088350;28;20033;-72
2021/11/11 01:44:03;;;;;;;67.25;38.92;;;2.20;99.90;;;;;;2096285;28;20032;-71
2021/11/11 01:45:04;;;;;;;70.20;40.88;;;2.20;99.90;;;;;;2088199;28;20104;-71
2021/11/11 01:46:08;;;;;;;67.15;39.88;;;2.20;99.90;;;;;;2089233;28;20028;-72
2021/11/11 01:47:08;;;;;;;71.13;40.97;;;2.20;99.90;;;;;;2096118;28;20033;-71
2021/11/11 01:48:12;;;;;;;69.80;40.25;;;2.20;99.90;;;;;;2104722;28;20070;-71
2021/11/11 01:49:13;;;;;;;68.32;40.03;;;2.20;99.90;;;;;;2104734;28;20098;-71
2021/11/11 01:50:14;;;;;;;68.30;39.83;;;2.20;99.90;;;;;;2104723;28;20035;-71
2021/11/11 01:51:18;;;;;;;72.20;41.50;;;2.20;99.90;;;;;;2095225;28;20590;-71
2021/11/11 01:52:25;;;;;;;68.43;40.58;;;2.20;99.90;;;;;;2091214;28;20107;-72
2021/11/11 01:53:28;;;;;;;67.90;40.85;;;2.20;99.90;;;;;;2096448;28;20032;-71
2021/11/11 01:54:29;;;;;;;73.65;42.58;;;2.20;99.90;;;;;;2088102;28;20025;-72
2021/11/11 01:55:32;;;;;;;77.32;44.33;;;2.20;99.90;;;;;;2090924;28;20064;-71
2021/11/11 01:56:36;;;;;;;82.53;45.47;;;2.20;99.90;;;;;;2097073;28;20487;-71
2021/11/11 01:57:56;;;;;;;83.78;45.42;;;2.20;99.90;;;;;;2099724;28;20047;-71
2021/11/11 01:58:57;;;;;;;85.95;47.05;;;2.20;99.90;;;;;;2096299;28;20119;-72
2021/11/11 01:59:57;;;;;;;98.40;51.95;;;2.20;99.90;;;;;;2088182;28;20571;-72
2021/11/11 02:00:59;;;;;;;103.70;53.53;;;2.20;99.90;;;;;;2093480;28;20399;-72
2021/11/11 02:02:05;;;;;;;103.80;53.40;;;2.20;99.90;;;;;;2097000;28;20032;-71
2021/11/11 02:03:14;;;;;;;103.63;52.65;;;2.20;99.90;;;;;;2097377;28;20475;-72
2021/11/11 02:04:29;;;;;;;96.40;51.45;;;2.20;99.90;;;;;;2096646;28;20028;-72
2021/11/11 02:05:34;;;;;;;101.05;51.22;;;2.10;99.90;;;;;;2089696;28;20518;-71
2021/11/11 02:06:35;;;;;;;97.20;50.55;;;2.10;99.90;;;;;;2087961;28;20484;-71
2021/11/11 02:07:38;;;;;;;93.93;49.17;;;2.10;99.90;;;;;;2090198;28;20538;-72
2021/11/11 02:08:40;;;;;;;88.78;48.58;;;2.10;99.90;;;;;;2096180;28;20028;-71
2021/11/11 02:09:40;;;;;;;81.43;45.72;;;2.10;99.90;;;;;;2083279;28;20017;-71
2021/11/11 02:10:50;;;;;;;85.25;45.55;;;2.20;99.90;;;;;;2088643;28;20021;-71
2021/11/11 02:11:51;;;;;;;79.00;44.60;;;2.20;99.90;;;;;;2088113;28;20434;-71
2021/11/11 02:12:52;;;;;;;79.45;44.15;;;2.20;99.90;;;;;;2093231;28;20420;-71
2021/11/11 02:13:54;;;;;;;79.65;43.25;;;2.20;99.90;;;;;;2096722;28;20062;-71
2021/11/11 02:14:57;;;;;;;81.88;44.55;;;2.20;99.90;;;;;;2097631;28;20036;-71
2021/11/11 02:16:00;;;;;;;78.38;44.97;;;2.20;99.90;;;;;;2096848;28;20029;-71
2021/11/11 02:17:06;;;;;;;80.95;45.95;;;2.20;99.90;;;;;;2098216;28;20079;-72
2021/11/11 02:18:20;;;;;;;79.55;43.85;;;2.20;99.90;;;;;;2099266;28;20028;-72
2021/11/11 02:19:21;;;;;;;78.95;45.28;;;2.10;99.90;;;;;;2106485;28;20043;-71
2021/11/11 02:20:25;;;;;;;78.28;44.35;;;2.10;99.90;;;;;;2106786;28;20034;-73
2021/11/11 02:21:38;;;;;;;75.05;42.88;;;2.10;99.90;;;;;;2100081;28;20123;-70
2021/11/11 02:22:40;;;;;;;77.85;42.85;;;2.10;99.90;;;;;;2089876;28;20028;-72
2021/11/11 02:23:41;;;;;;;77.78;43.45;;;2.10;99.90;;;;;;2087972;28;20383;-69
2021/11/11 02:24:59;;;;;;;77.38;42.75;;;2.10;99.90;;;;;;2091927;28;20060;-72
2021/11/11 02:26:00;;;;;;;77.57;43.75;;;2.10;99.90;;;;;;2097914;28;20024;-70
2021/11/11 02:27:10;;;;;;;76.88;43.03;;;2.10;99.90;;;;;;2097701;28;20430;-72
2021/11/11 02:28:14;;;;;;;73.05;41.50;;;2.10;99.90;;;;;;2091318;28;20546;-72
2021/11/11 02:29:15;;;;;;;76.60;43.40;;;2.10;99.90;;;;;;2097777;28;20107;-70
2021/11/11 02:30:17;;;;;;;74.55;42.72;;;2.10;99.90;;;;;;2098402;28;20028;-70
2021/11/11 02:31:19;;;;;;;72.03;41.10;;;2.10;99.90;;;;;;2096953;28;20048;-70
2021/11/11 02:32:29;;;;;;;74.22;43.42;;;2.10;99.90;;;;;;2098082;28;20070;-70
2021/11/11 02:33:31;;;;;;;74.60;41.83;;;2.10;99.90;;;;;;2098455;28;20056;-70
2021/11/11 02:34:31;;;;;;;73.13;42.03;;;2.10;99.90;;;;;;2098940;28;20028;-70
2021/11/11 02:35:34;;;;;;;75.47;43.17;;;2.10;99.90;;;;;;2097738;28;20484;-71
2021/11/11 02:36:35;;;;;;;74.05;42.83;;;2.20;99.90;;;;;;2096496;28;20107;-71
2021/11/11 02:37:39;;;;;;;75.70;43.47;;;2.10;99.90;;;;;;2105870;28;20079;-71
2021/11/11 02:38:49;;;;;;;74.05;42.80;;;2.10;99.90;;;;;;2104415;28;20037;-71
2021/11/11 02:39:50;;;;;;;75.30;43.30;;;2.10;99.90;;;;;;2091158;28;20040;-71
2021/11/11 02:40:55;;;;;;;80.40;44.30;;;2.10;99.90;;;;;;2096878;28;20037;-71
2021/11/11 02:41:56;;;;;;;77.43;44.22;;;2.10;99.90;;;;;;2097344;28;20468;-70
2021/11/11 02:42:56;;;;;;;79.68;45.22;;;2.10;99.90;;;;;;2102057;28;20061;-71
2021/11/11 02:44:01;;;;;;;79.60;45.00;;;2.10;99.90;;;;;;2098029;28;20030;-70
2021/11/11 02:45:06;;;;;;;80.43;45.25;;;2.10;99.90;;;;;;2106037;28;20198;-70
2021/11/11 02:46:10;;;;;;;77.70;43.75;;;2.10;99.90;;;;;;2105950;28;20037;-70
2021/11/11 02:47:11;;;;;;;76.97;44.22;;;2.10;99.90;;;;;;2097474;28;20118;-71
2021/11/11 02:48:22;;;;;;;75.55;43.38;;;2.10;99.90;;;;;;2098919;28;20111;-70
2021/11/11 02:49:32;;;;;;;76.57;43.97;;;2.00;99.90;;;;;;2090159;28;20025;-71
2021/11/11 02:50:34;;;;;;;80.95;44.67;;;2.00;99.90;;;;;;2090640;28;20458;-72
2021/11/11 02:51:34;;;;;;;80.90;45.75;;;2.00;99.90;;;;;;2105271;28;20028;-71
2021/11/11 02:52:35;;;;;;;74.28;42.90;;;2.00;99.90;;;;;;2104206;28;20028;-71
2021/11/11 02:53:41;;;;;;;79.82;44.42;;;2.00;99.90;;;;;;2097359;28;20192;-71
2021/11/11 02:54:41;;;;;;;76.72;43.55;;;2.00;99.90;;;;;;2098089;28;20111;-72
2021/11/11 02:55:44;;;;;;;76.57;43.80;;;2.00;99.90;;;;;;2097272;28;20025;-71
2021/11/11 02:56:45;;;;;;;75.90;43.22;;;2.00;99.90;;;;;;2089565;28;20111;-72
2021/11/11 02:57:47;;;;;;;76.85;43.78;;;2.00;99.90;;;;;;2097753;28;20090;-71
2021/11/11 02:58:47;;;;;;;72.85;41.50;;;2.00;99.90;;;;;;2098168;28;20033;-72
2021/11/11 02:59:49;;;;;;;71.65;42.05;;;2.00;99.90;;;;;;2098230;28;20036;-72
2021/11/11 03:00:59;;;;;;;69.95;40.92;;;2.00;99.90;;;;;;2100773;28;20038;-72
2021/11/11 03:02:01;;;;;;;74.55;41.88;;;2.00;99.90;;;;;;2094137;28;20401;-72
2021/11/11 03:03:02;;;;;;;73.53;41.75;;;2.00;99.90;;;;;;2094288;28;20032;-72
2021/11/11 03:04:07;;;;;;;75.85;43.22;;;2.00;99.90;;;;;;2100160;28;20043;-72
2021/11/11 03:05:10;;;;;;;83.43;45.05;;;2.00;99.90;;;;;;2097896;28;20063;-72
2021/11/11 03:06:11;;;;;;;86.97;46.42;;;2.00;99.90;;;;;;2097746;28;20119;-72
2021/11/11 03:07:16;;;;;;;81.65;45.35;;;2.00;99.90;;;;;;2105945;28;20040;-72
2021/11/11 03:08:17;;;;;;;82.22;43.90;;;2.10;99.90;;;;;;2105981;28;20146;-72
2021/11/11 03:09:29;;;;;;;81.43;44.55;;;2.00;99.90;;;;;;2090799;28;20070;-72
2021/11/11 03:10:31;;;;;;;75.07;43.13;;;2.00;99.90;;;;;;2098623;28;20081;-72
2021/11/11 03:11:33;;;;;;;75.10;43.53;;;2.00;99.90;;;;;;2105674;28;20414;-72
2021/11/11 03:12:39;;;;;;;79.88;43.53;;;2.00;99.90;;;;;;2095521;28;20025;-72
2021/11/11 03:13:41;;;;;;;75.00;42.42;;;2.00;99.90;;;;;;2096496;28;20063;-70
2021/11/11 03:14:46;;;;;;;73.25;42.30;;;2.00;99.90;;;;;;2097439;28;20028;-71
2021/11/11 03:15:47;;;;;;;70.53;40.65;;;2.00;99.90;;;;;;2090464;28;20036;-71
2021/11/11 03:16:48;;;;;;;73.47;41.63;;;2.00;99.90;;;;;;2093923;28;20084;-72
2021/11/11 03:17:49;;;;;;;72.95;41.42;;;2.00;99.90;;;;;;2101980;28;20023;-72
2021/11/11 03:18:50;;;;;;;71.43;42.25;;;2.00;99.90;;;;;;2097505;28;20115;-71
2021/11/11 03:19:51;;;;;;;70.38;40.65;;;2.00;99.90;;;;;;2089003;28;20559;-71
2021/11/11 03:20:52;;;;;;;72.72;41.35;;;2.00;99.90;;;;;;2101864;28;20028;-71
2021/11/11 03:21:53;;;;;;;76.05;43.15;;;1.90;99.90;;;;;;2097007;28;20059;-72
2021/11/11 03:22:54;;;;;;;75.93;42.45;;;1.90;99.90;;;;;;2105287;28;20487;-72
2021/11/11 03:23:58;;;;;;;77.30;43.55;;;1.90;99.90;;;;;;2088410;28;20143;-71
2021/11/11 03:25:03;;;;;;;76.57;43.30;;;2.00;99.90;;;;;;2081778;28;20076;-71
2021/11/11 03:26:10;;;;;;;74.72;42.33;;;1.90;99.90;;;;;;2089158;28;20024;-70
2021/11/11 03:27:16;;;;;;;74.88;41.88;;;1.90;99.90;;;;;;2094406;28;20051;-72
2021/11/11 03:28:16;;;;;;;74.22;41.20;;;1.90;99.90;;;;;;2097596;28;20104;-71
2021/11/11 03:29:20;;;;;;;72.00;41.40;;;1.90;99.90;;;;;;2100288;28;20020;-71
2021/11/11 03:30:27;;;;;;;74.32;41.03;;;1.90;99.90;;;;;;2105257;28;20024;-71
2021/11/11 03:31:27;;;;;;;71.57;40.75;;;1.80;99.90;;;;;;2097296;28;20123;-71
2021/11/11 03:32:31;;;;;;;68.57;40.10;;;1.90;99.90;;;;;;2105890;28;20028;-71
2021/11/11 03:33:34;;;;;;;70.80;40.80;;;1.80;99.90;;;;;;2097731;28;20512;-71
2021/11/11 03:34:35;;;;;;;71.80;42.38;;;1.90;99.90;;;;;;2106153;28;20086;-71
2021/11/11 03:35:40;;;;;;;74.90;42.58;;;1.90;99.90;;;;;;2105999;28;20766;-70
2021/11/11 03:36:43;;;;;;;74.68;41.60;;;1.90;99.90;;;;;;2097559;28;20036;-70
2021/11/11 03:37:47;;;;;;;74.13;42.63;;;1.90;99.90;;;;;;2097608;28;20107;-70
2021/11/11 03:38:52;;;;;;;75.90;41.65;;;1.90;99.90;;;;;;2090018;28;20043;-70
2021/11/11 03:39:53;;;;;;;72.72;41.80;;;1.90;99.90;;;;;;2098064;28;20464;-70
2021/11/11 03:40:56;;;;;;;70.28;40.90;;;1.90;99.90;;;;;;2105496;28;20484;-71
2021/11/11 03:42:12;;;;;;;72.38;41.13;;;1.80;99.90;;;;;;2098829;28;20751;-71
2021/11/11 03:43:13;;;;;;;74.70;41.72;;;1.90;99.90;;;;;;2096490;28;20032;-71
2021/11/11 03:44:22;;;;;;;77.85;42.55;;;1.90;99.90;;;;;;2098595;28;20029;-71
2021/11/11 03:45:23;;;;;;;76.03;42.03;;;1.90;99.90;;;;;;2097754;28;20029;-71
2021/11/11 03:46:24;;;;;;;78.72;42.67;;;1.90;99.90;;;;;;2089246;28;20036;-71
2021/11/11 03:47:27;;;;;;;76.15;41.97;;;1.90;99.90;;;;;;2097747;28;20735;-71
2021/11/11 03:48:27;;;;;;;75.65;41.47;;;1.90;99.90;;;;;;2097532;28;20037;-71
2021/11/11 03:49:34;;;;;;;74.13;40.85;;;1.90;99.90;;;;;;2097822;28;20028;-71
2021/11/11 03:50:35;;;;;;;69.68;40.45;;;1.80;99.90;;;;;;2097639;28;20023;-71
2021/11/11 03:51:41;;;;;;;72.97;40.95;;;1.80;99.90;;;;;;2097246;28;20054;-71
2021/11/11 03:52:42;;;;;;;73.85;42.10;;;1.80;99.90;;;;;;2097504;28;20630;-71
2021/11/11 03:53:46;;;;;;;71.03;40.58;;;1.80;99.90;;;;;;2089490;28;20025;-71
2021/11/11 03:54:48;;;;;;;73.30;40.88;;;1.80;99.90;;;;;;2082345;28;20035;-71
2021/11/11 03:55:54;;;;;;;70.07;40.67;;;1.80;99.90;;;;;;2098145;28;20032;-71
2021/11/11 03:56:58;;;;;;;69.22;40.40;;;1.80;99.90;;;;;;2092867;28;20035;-71
2021/11/11 03:57:59;;;;;;;72.55;40.97;;;1.80;99.90;;;;;;2106012;28;20495;-71
2021/11/11 03:59:04;;;;;;;70.32;40.78;;;1.80;99.90;;;;;;2098187;28;20032;-71
2021/11/11 04:00:11;;;;;;;71.63;40.58;;;1.80;99.90;;;;;;2098120;28;20070;-71
2021/11/11 04:01:23;;;;;;;68.65;39.22;;;1.80;99.90;;;;;;2089983;28;20079;-70
2021/11/11 04:02:25;;;;;;;67.18;38.83;;;1.70;99.90;;;;;;2097409;28;20029;-70
2021/11/11 04:03:25;;;;;;;67.40;38.58;;;1.70;99.90;;;;;;2097278;28;20032;-72
2021/11/11 04:04:26;;;;;;;70.35;39.88;;;1.70;99.90;;;;;;2097267;28;20020;-71
2021/11/11 04:05:27;;;;;;;68.88;38.40;;;1.70;99.90;;;;;;2098499;28;20028;-71
2021/11/11 04:06:32;;;;;;;67.20;38.80;;;1.70;99.90;;;;;;2099146;28;20060;-71
2021/11/11 04:07:34;;;;;;;68.25;38.42;;;1.70;99.90;;;;;;2097265;28;20016;-71
2021/11/11 04:08:35;;;;;;;65.18;38.35;;;1.70;99.90;;;;;;2099620;28;20095;-71
2021/11/11 04:09:37;;;;;;;64.43;37.47;;;1.70;99.90;;;;;;2096688;28;20017;-70
2021/11/11 04:10:38;;;;;;;62.03;37.08;;;1.70;99.90;;;;;;2102021;28;20432;-70
2021/11/11 04:11:48;;;;;;;65.88;37.60;;;1.70;99.90;;;;;;2096652;28;20021;-70
2021/11/11 04:12:49;;;;;;;66.68;38.78;;;1.70;99.90;;;;;;2088984;28;20021;-70
2021/11/11 04:13:51;;;;;;;66.40;38.03;;;1.70;99.90;;;;;;2096926;28;20037;-71
2021/11/11 04:14:52;;;;;;;66.55;38.03;;;1.70;99.90;;;;;;2089151;28;20072;-70
2021/11/11 04:15:53;;;;;;;68.40;40.25;;;1.60;99.90;;;;;;2080632;28;20036;-71
2021/11/11 04:16:54;;;;;;;66.53;39.63;;;1.70;99.90;;;;;;2080865;28;20040;-71
2021/11/11 04:17:56;;;;;;;69.72;39.53;;;1.70;99.90;;;;;;2088717;28;20040;-71
2021/11/11 04:18:57;;;;;;;67.65;39.58;;;1.60;99.90;;;;;;2095743;28;20029;-73
2021/11/11 04:19:58;;;;;;;70.28;40.63;;;1.60;99.90;;;;;;2097136;28;20059;-71
2021/11/11 04:21:00;;;;;;;72.68;40.97;;;1.70;99.90;;;;;;2088255;28;20067;-71
2021/11/11 04:22:03;;;;;;;76.57;42.28;;;1.60;99.90;;;;;;2080463;28;20467;-72
2021/11/11 04:23:04;;;;;;;71.30;41.03;;;1.60;99.90;;;;;;2080940;28;20148;-71
2021/11/11 04:24:05;;;;;;;76.40;43.72;;;1.60;99.90;;;;;;2093542;28;20054;-72
2021/11/11 04:25:06;;;;;;;75.60;42.30;;;1.60;99.90;;;;;;2088852;28;20057;-71
2021/11/11 04:26:17;;;;;;;72.18;41.90;;;1.60;99.90;;;;;;2094942;28;20032;-72
2021/11/11 04:27:33;;;;;;;71.10;41.15;;;1.60;99.90;;;;;;2088947;28;20021;-72
2021/11/11 04:28:50;;;;;;;76.45;41.38;;;1.60;99.90;;;;;;2086600;28;20566;-72
2021/11/11 04:30:03;;;;;;;73.65;41.10;;;1.60;99.90;;;;;;2098115;28;20575;-73
2021/11/11 04:31:08;;;;;;;73.97;40.78;;;1.60;99.90;;;;;;2097898;28;20029;-71
2021/11/11 04:32:12;;;;;;;73.10;39.85;;;1.60;99.90;;;;;;2105203;28;20058;-72
2021/11/11 04:33:14;;;;;;;70.65;40.03;;;1.60;99.90;;;;;;2105469;28;20028;-71
2021/11/11 04:34:16;;;;;;;71.70;40.17;;;1.60;99.90;;;;;;2094765;28;20043;-72
2021/11/11 04:35:18;;;;;;;72.70;41.75;;;1.60;99.90;;;;;;2088977;28;20025;-71
2021/11/11 04:38:02;;;;;;;75.85;41.65;;;1.60;99.90;;;;;;2097550;28;20392;-70
2021/11/11 04:41:10;;;;;;;75.32;40.35;;;1.60;99.90;;;;;;2086024;28;20111;-71
2021/11/11 04:42:26;;;;;;;76.47;40.58;;;1.60;99.90;;;;;;2100661;28;20059;-71
2021/11/11 04:44:53;;;;;;;111.30;56.13;;;1.60;99.90;;;;;;2098700;28;20105;-70
2021/11/11 04:46:16;;;;;;;222.55;95.90;;;1.70;99.90;;;;;;2099708;28;20025;-71
2021/11/11 04:51:44;;;;;;;228.77;98.80;;;1.70;99.90;;;;;;2084671;28;20036;-71
2021/11/11 04:53:07;;;;;;;211.30;89.68;;;1.70;99.90;;;;;;2097388;28;20517;-70
2021/11/11 04:59:37;;;;;;;143.48;64.95;;;1.60;99.90;;;;;;2096929;28;20036;-70
2021/11/11 04:59:55;;;;;;;127.40;59.97;;;1.60;99.90;;;;;;2094305;28;20021;-70
2021/11/11 05:03:25;;;;;;;106.05;55.22;;;1.70;99.90;;;;;;2089166;28;20067;-70
2021/11/11 05:04:25;;;;;;;104.90;53.67;;;1.70;99.90;;;;;;2091151;28;20505;-73
2021/11/11 05:05:27;;;;;;;99.65;52.38;;;1.70;99.90;;;;;;2096626;28;20075;-71
2021/11/11 05:06:27;;;;;;;102.32;53.22;;;1.70;99.90;;;;;;2088241;28;20035;-71
2021/11/11 05:07:28;;;;;;;105.25;52.75;;;1.70;99.90;;;;;;2098122;28;20507;-71
2021/11/11 05:08:29;;;;;;;98.78;51.22;;;1.60;99.90;;;;;;2096347;28;20092;-71
2021/11/11 05:09:30;;;;;;;95.68;50.72;;;1.60;99.90;;;;;;2096656;28;20531;-71
2021/11/11 05:10:31;;;;;;;97.75;50.72;;;1.60;99.90;;;;;;2097509;28;20024;-71
2021/11/11 05:11:34;;;;;;;97.15;51.60;;;1.60;99.90;;;;;;2096057;28;20025;-71
2021/11/11 05:12:37;;;;;;;95.93;50.58;;;1.60;99.90;;;;;;2096339;28;20024;-71
2021/11/11 05:13:39;;;;;;;95.50;50.63;;;1.70;99.90;;;;;;2105099;28;20734;-71
2021/11/11 05:14:45;;;;;;;94.05;49.55;;;1.70;99.90;;;;;;2097128;28;20035;-72
2021/11/11 05:15:47;;;;;;;91.72;48.25;;;1.70;99.90;;;;;;2096034;28;20020;-72
2021/11/11 05:16:49;;;;;;;88.25;47.78;;;1.70;99.90;;;;;;2088620;28;20028;-72
2021/11/11 05:17:53;;;;;;;86.47;46.88;;;1.70;99.90;;;;;;2088698;28;20056;-72
2021/11/11 05:18:58;;;;;;;87.22;46.60;;;1.70;99.90;;;;;;2096651;28;20031;-72
2021/11/11 05:19:59;;;;;;;87.03;48.35;;;1.70;99.90;;;;;;2088539;28;20103;-72
2021/11/11 05:21:01;;;;;;;89.93;48.47;;;1.70;99.90;;;;;;2089225;28;20040;-72
2021/11/11 05:22:02;;;;;;;88.53;47.35;;;1.70;99.90;;;;;;2104459;28;20407;-71
2021/11/11 05:23:03;;;;;;;88.18;47.63;;;1.60;99.90;;;;;;2104777;28;20036;-72
2021/11/11 05:24:04;;;;;;;85.53;47.35;;;1.70;99.90;;;;;;2103191;28;20024;-72
2021/11/11 05:25:10;;;;;;;86.25;46.08;;;1.70;99.90;;;;;;2104913;28;20016;-72
2021/11/11 05:26:11;;;;;;;87.13;47.33;;;1.70;99.90;;;;;;2104628;28;20101;-72
2021/11/11 05:27:14;;;;;;;90.75;48.28;;;1.70;99.90;;;;;;2096398;28;20500;-72
2021/11/11 05:28:15;;;;;;;93.70;49.13;;;1.70;99.90;;;;;;2096500;28;20025;-72
2021/11/11 05:29:16;;;;;;;91.97;49.88;;;1.70;99.90;;;;;;2096319;28;20436;-72
2021/11/11 05:30:18;;;;;;;95.43;50.75;;;1.70;99.90;;;;;;2088352;28;20036;-72
2021/11/11 05:31:19;;;;;;;99.72;51.28;;;1.70;99.90;;;;;;2097263;28;20020;-72
2021/11/11 05:32:20;;;;;;;104.60;53.95;;;1.60;99.90;;;;;;2098436;28;20387;-72
2021/11/11 05:33:21;;;;;;;106.38;53.80;;;1.70;99.90;;;;;;2088089;28;20021;-72
2021/11/11 05:34:23;;;;;;;106.18;54.05;;;1.70;99.90;;;;;;2088067;28;20061;-72
2021/11/11 05:35:24;;;;;;;104.82;54.22;;;1.70;99.90;;;;;;2094378;28;20028;-72
2021/11/11 05:36:25;;;;;;;107.38;55.95;;;1.70;99.90;;;;;;2096252;28;20056;-71
2021/11/11 05:37:26;;;;;;;112.68;56.58;;;1.60;99.90;;;;;;2101088;28;20024;-72
2021/11/11 05:38:26;;;;;;;112.25;56.58;;;1.60;99.90;;;;;;2096358;28;20127;-72
2021/11/11 05:39:27;;;;;;;116.03;58.22;;;1.70;99.90;;;;;;2088052;28;20048;-71